createdAt,value
2019-02-03T00:04:32.005Z,73.30
2019-02-03T00:07:03.469Z,71.30
2019-02-03T00:09:29.632Z,71.73
2019-02-03T00:11:57.669Z,75.60
2019-02-03T00:14:25.742Z,74.00
2019-02-03T00:16:55.445Z,72.87
2019-02-03T00:19:23.481Z,72.27
2019-02-03T00:21:51.418Z,72.40
2019-02-03T00:24:19.463Z,71.67
2019-02-03T00:26:47.502Z,73.57
2019-02-03T00:29:15.469Z,72.13
2019-02-03T00:31:45.113Z,72.57
2019-02-03T00:34:13.042Z,81.80
2019-02-03T00:36:41.032Z,73.27
2019-02-03T00:39:09.535Z,74.70
2019-02-03T00:41:37.650Z,76.77
2019-02-03T00:47:08.075Z,75.10
2019-02-03T00:49:36.100Z,73.20
2019-02-03T00:52:04.174Z,74.90
2019-02-03T00:54:32.331Z,77.03
2019-02-03T00:57:00.328Z,78.90
2019-02-03T00:59:28.385Z,75.93
2019-02-03T01:01:56.362Z,78.30
2019-02-03T01:04:24.442Z,75.90
2019-02-03T01:06:52.672Z,80.10
2019-02-03T01:09:20.999Z,76.23
2019-02-03T01:11:49.069Z,76.87
2019-02-03T01:14:17.016Z,76.80
2019-02-03T01:16:44.984Z,74.87
2019-02-03T01:19:12.976Z,74.33
2019-02-03T01:21:41.012Z,74.67
2019-02-03T01:24:10.687Z,76.07
2019-02-03T01:26:38.696Z,76.80
2019-02-03T01:29:06.702Z,76.07
2019-02-03T01:31:34.766Z,74.57
2019-02-03T01:34:02.838Z,78.53
2019-02-03T01:36:30.908Z,77.03
2019-02-03T01:39:00.931Z,77.77
2019-02-03T01:41:28.968Z,78.10
2019-02-03T01:43:56.933Z,77.07
2019-02-03T01:46:24.932Z,80.27
2019-02-03T01:48:52.961Z,78.50
2019-02-03T01:51:21.024Z,74.23
2019-02-03T01:53:50.689Z,76.50
2019-02-03T01:56:18.728Z,76.63
2019-02-03T01:58:46.766Z,76.87
2019-02-03T02:01:14.778Z,76.53
2019-02-03T02:03:42.761Z,76.07
2019-02-03T02:06:10.826Z,76.90
2019-02-03T02:08:40.578Z,75.87
2019-02-03T02:11:08.500Z,77.17
2019-02-03T02:13:36.584Z,76.20
2019-02-03T02:16:04.704Z,76.67
2019-02-03T02:18:32.710Z,76.07
2019-02-03T02:21:00.697Z,75.57
2019-02-03T02:23:30.418Z,74.20
2019-02-03T02:25:58.504Z,76.27
2019-02-03T02:28:26.530Z,82.27
2019-02-03T02:30:54.516Z,75.37
2019-02-03T02:33:22.604Z,77.77
2019-02-03T02:35:50.668Z,76.90
2019-02-03T02:38:18.622Z,81.00
2019-02-03T02:40:46.634Z,83.23
2019-02-03T02:43:14.683Z,75.17
2019-02-03T02:45:42.748Z,78.37
2019-02-03T02:48:10.708Z,82.37
2019-02-03T02:50:40.230Z,75.57
2019-02-03T02:53:08.603Z,77.80
2019-02-03T02:55:36.558Z,76.50
2019-02-03T02:58:04.768Z,74.40
2019-02-03T03:00:32.816Z,74.70
2019-02-03T03:03:00.853Z,86.70
2019-02-03T03:05:28.848Z,77.97
2019-02-03T03:07:56.891Z,76.47
2019-02-03T03:10:24.861Z,81.40
2019-02-03T03:12:52.902Z,82.20
2019-02-03T03:15:21.251Z,79.87
2019-02-03T03:17:49.483Z,79.10
2019-02-03T03:20:18.401Z,77.27
2019-02-03T03:22:46.462Z,80.17
2019-02-03T03:25:14.941Z,79.63
2019-02-03T03:30:26.378Z,78.30
2019-02-03T03:32:54.495Z,77.70
2019-02-03T03:38:32.198Z,79.60
2019-02-03T03:40:59.703Z,80.80
2019-02-03T03:43:27.883Z,76.37
2019-02-03T03:45:55.924Z,79.50
2019-02-03T03:48:23.923Z,80.50
2019-02-03T03:50:51.965Z,82.77
2019-02-03T03:53:20.231Z,81.70
2019-02-03T03:55:48.230Z,78.77
2019-02-03T03:58:17.828Z,82.63
2019-02-03T04:00:45.865Z,83.40
2019-02-03T04:03:13.867Z,77.00
2019-02-03T04:05:41.878Z,83.90
2019-02-03T04:08:09.899Z,79.47
2019-02-03T04:10:38.068Z,76.23
2019-02-03T04:13:07.800Z,77.97
2019-02-03T04:15:35.874Z,77.97
2019-02-03T04:21:06.764Z,77.67
2019-02-03T04:23:34.800Z,81.13
2019-02-03T04:28:43.213Z,78.63
2019-02-03T04:31:11.189Z,77.57
2019-02-03T04:33:40.887Z,79.00
2019-02-03T04:36:08.865Z,80.97
2019-02-03T04:38:36.840Z,83.63
2019-02-03T04:41:04.820Z,81.53
2019-02-03T04:43:32.896Z,81.07
2019-02-03T04:46:00.938Z,81.77
2019-02-03T04:48:30.608Z,78.20
2019-02-03T04:50:58.652Z,82.97
2019-02-03T04:53:26.623Z,84.50
2019-02-03T04:55:54.704Z,85.87
2019-02-03T04:58:22.642Z,81.77
2019-02-03T05:00:50.727Z,89.73
2019-02-03T05:03:20.407Z,86.60
2019-02-03T05:05:48.399Z,82.67
2019-02-03T05:08:16.597Z,86.73
2019-02-03T05:10:44.540Z,91.67
2019-02-03T05:13:12.813Z,85.40
2019-02-03T05:15:40.778Z,80.60
2019-02-03T05:18:10.445Z,79.67
2019-02-03T05:20:38.475Z,80.07
2019-02-03T05:25:48.492Z,82.53
2019-02-03T05:28:16.557Z,84.30
2019-02-03T05:30:46.204Z,86.93
2019-02-03T05:33:14.215Z,81.03
2019-02-03T05:35:42.158Z,84.67
2019-02-03T05:38:10.222Z,82.07
2019-02-03T05:40:38.193Z,85.43
2019-02-03T05:43:06.157Z,90.23
2019-02-03T05:45:35.857Z,86.60
2019-02-03T05:48:03.820Z,79.07
2019-02-03T05:50:31.870Z,82.13
2019-02-03T05:52:59.875Z,81.47
2019-02-03T05:55:27.892Z,83.90
2019-02-03T05:57:55.926Z,78.70
2019-02-03T06:00:45.449Z,78.47
2019-02-03T06:03:13.494Z,79.00
2019-02-03T06:05:41.556Z,81.43
2019-02-03T06:08:09.599Z,79.13
2019-02-03T06:10:37.596Z,83.70
2019-02-03T06:13:05.566Z,77.70
2019-02-03T06:15:33.630Z,80.40
2019-02-03T06:18:01.586Z,82.67
2019-02-03T06:20:29.671Z,86.57
2019-02-03T06:22:57.606Z,83.43
2019-02-03T06:25:25.607Z,87.60
2019-02-03T06:27:53.691Z,85.50
2019-02-03T06:30:40.984Z,83.17
2019-02-03T06:33:08.944Z,83.63
2019-02-03T06:35:36.920Z,87.47
2019-02-03T06:38:06.639Z,86.90
2019-02-03T06:40:34.694Z,80.00
2019-02-03T06:43:02.667Z,78.37
2019-02-03T06:45:49.694Z,80.57
2019-02-03T06:51:08.484Z,81.77
2019-02-03T06:53:36.547Z,93.40
2019-02-03T06:56:04.520Z,88.10
2019-02-03T06:58:32.472Z,86.73
2019-02-03T07:01:00.457Z,83.83
2019-02-03T07:03:28.509Z,83.40
2019-02-03T07:05:56.499Z,84.17
2019-02-03T07:08:24.555Z,80.03
2019-02-03T07:10:52.647Z,85.40
2019-02-03T07:13:20.690Z,83.60
2019-02-03T07:15:50.332Z,80.90
2019-02-03T07:18:18.403Z,85.73
2019-02-03T07:20:46.754Z,82.10
2019-02-03T07:23:14.720Z,83.90
2019-02-03T07:25:42.797Z,86.00
2019-02-03T07:28:11.153Z,79.90
2019-02-03T07:30:40.763Z,85.70
2019-02-03T07:33:08.732Z,82.20
2019-02-03T07:35:36.738Z,81.70
2019-02-03T07:38:04.793Z,83.00
2019-02-03T07:40:32.761Z,81.57
2019-02-03T07:43:00.906Z,80.50
2019-02-03T07:45:28.886Z,83.20
2019-02-03T07:47:56.985Z,85.87
2019-02-03T07:50:25.034Z,79.27
2019-02-03T07:52:53.019Z,83.50
2019-02-03T07:55:20.989Z,79.00
2019-02-03T07:57:48.997Z,80.87
2019-02-03T08:00:18.696Z,77.93
2019-02-03T08:02:46.731Z,84.73
2019-02-03T08:05:14.811Z,79.90
2019-02-03T08:07:42.887Z,80.83
2019-02-03T08:10:31.328Z,75.67
2019-02-03T08:12:59.408Z,87.20
2019-02-03T08:15:27.452Z,82.50
2019-02-03T08:17:55.460Z,76.80
2019-02-03T08:20:23.689Z,107.20
2019-02-03T08:22:51.720Z,110.17
2019-02-03T08:25:19.774Z,86.60
2019-02-03T08:27:49.461Z,91.00
2019-02-03T08:33:21.649Z,92.23
2019-02-03T08:35:49.910Z,82.00
2019-02-03T08:38:17.980Z,88.57
2019-02-03T08:40:45.957Z,83.43
2019-02-03T08:43:13.951Z,80.20
2019-02-03T08:45:41.939Z,80.40
2019-02-03T08:48:10.432Z,80.73
2019-02-03T08:50:40.121Z,85.50
2019-02-03T08:53:08.161Z,84.60
2019-02-03T08:55:36.155Z,78.37
2019-02-03T08:58:04.114Z,82.00
2019-02-03T09:00:32.132Z,77.80
2019-02-03T09:03:00.136Z,80.00
2019-02-03T09:05:29.879Z,80.60
2019-02-03T09:10:48.436Z,80.63
2019-02-03T09:13:11.686Z,80.00
2019-02-03T09:15:39.640Z,76.73
2019-02-03T09:18:08.046Z,79.00
2019-02-03T09:20:36.123Z,78.53
2019-02-03T09:26:08.690Z,88.27
2019-02-03T09:28:36.481Z,82.50
2019-02-03T09:34:07.052Z,78.50
2019-02-03T09:36:34.977Z,78.83
2019-02-03T09:41:52.070Z,79.67
2019-02-03T09:44:20.781Z,79.60
2019-02-03T09:46:48.808Z,78.03
2019-02-03T09:49:16.845Z,76.20
2019-02-03T09:51:44.919Z,76.10
2019-02-03T09:54:12.973Z,78.57
2019-02-03T09:56:40.996Z,78.47
2019-02-03T09:59:09.075Z,75.40
2019-02-03T10:01:37.184Z,76.30
2019-02-03T10:04:05.416Z,76.87
2019-02-03T10:06:33.449Z,81.30
2019-02-03T10:09:01.427Z,79.40
2019-02-03T10:11:29.511Z,74.57
2019-02-03T10:13:58.083Z,76.60
2019-02-03T10:16:26.052Z,75.30
2019-02-03T10:18:54.126Z,75.10
2019-02-03T10:21:22.209Z,74.43
2019-02-03T10:23:50.271Z,76.63
2019-02-03T10:26:18.343Z,74.87
2019-02-03T10:28:46.812Z,74.90
2019-02-03T10:31:35.141Z,73.60
2019-02-03T10:34:03.170Z,74.77
2019-02-03T10:36:31.274Z,74.40
2019-02-03T10:38:59.489Z,75.20
2019-02-03T10:41:29.172Z,75.90
2019-02-03T10:43:57.160Z,75.27
2019-02-03T10:46:25.112Z,76.77
2019-02-03T10:48:53.077Z,78.03
2019-02-03T10:51:21.077Z,77.70
2019-02-03T10:53:49.116Z,74.97
2019-02-03T10:56:17.104Z,79.17
2019-02-03T10:58:46.141Z,78.37
2019-02-03T11:03:59.246Z,77.67
2019-02-03T11:09:10.155Z,76.47
2019-02-03T11:11:38.292Z,80.23
2019-02-03T11:14:06.484Z,77.50
2019-02-03T11:16:34.561Z,77.60
2019-02-03T11:19:02.638Z,78.87
2019-02-03T11:21:30.621Z,79.83
2019-02-03T11:23:58.639Z,77.40
2019-02-03T11:26:26.671Z,78.30
2019-02-03T11:28:54.691Z,83.77
2019-02-03T11:34:06.320Z,81.77
2019-02-03T11:36:34.408Z,83.20
2019-02-03T11:39:02.789Z,81.00
2019-02-03T11:41:31.108Z,80.23
2019-02-03T11:43:59.088Z,77.00
2019-02-03T11:46:27.056Z,79.10
2019-02-03T11:48:55.278Z,77.17
2019-02-03T11:51:23.341Z,78.60
2019-02-03T11:53:51.812Z,76.00
2019-02-03T11:56:20.002Z,77.50
2019-02-03T11:58:48.063Z,77.60
2019-02-03T12:01:16.675Z,78.97
2019-02-03T12:03:45.814Z,75.43
2019-02-03T12:06:13.892Z,78.50
2019-02-03T12:08:42.101Z,89.53
2019-02-03T12:13:52.783Z,81.73
2019-02-03T12:16:20.833Z,77.90
2019-02-03T12:18:48.931Z,79.33
2019-02-03T12:21:17.124Z,79.07
2019-02-03T12:23:46.033Z,81.27
2019-02-03T12:26:14.063Z,78.30
2019-02-03T12:28:42.175Z,79.80
2019-02-03T12:31:10.192Z,76.70
2019-02-03T12:33:38.548Z,79.20
2019-02-03T12:36:06.817Z,80.00
2019-02-03T12:38:34.843Z,78.47
2019-02-03T12:41:02.861Z,83.57
2019-02-03T12:43:31.018Z,78.57
2019-02-03T12:45:59.170Z,83.40
2019-02-03T12:48:27.220Z,81.40
2019-02-03T12:50:55.372Z,79.57
2019-02-03T12:53:23.376Z,76.47
2019-02-03T12:55:51.431Z,83.17
2019-02-03T12:58:19.762Z,82.20
2019-02-03T13:00:49.696Z,80.40
2019-02-03T13:03:19.141Z,78.90
2019-02-03T13:05:48.861Z,80.10
2019-02-03T13:08:16.936Z,77.70
2019-02-03T13:10:45.082Z,80.27
2019-02-03T13:13:13.228Z,77.37
2019-02-03T13:16:00.260Z,80.13
2019-02-03T13:18:28.334Z,76.90
2019-02-03T13:20:56.474Z,88.77
2019-02-03T13:23:24.894Z,77.57
2019-02-03T13:25:53.044Z,80.47
2019-02-03T13:28:21.128Z,89.10
2019-02-03T13:30:51.297Z,82.80
2019-02-03T13:33:21.484Z,82.37
2019-02-03T13:35:49.193Z,77.33
2019-02-03T13:38:17.347Z,78.93
2019-02-03T13:40:45.441Z,79.83
2019-02-03T13:43:13.918Z,76.90
2019-02-03T13:45:44.842Z,78.77
2019-02-03T13:48:11.935Z,80.53
2019-02-03T13:50:40.044Z,80.87
2019-02-03T13:53:08.129Z,68.70
2019-02-03T13:55:36.120Z,66.63
2019-02-03T13:58:04.198Z,66.57
2019-02-03T14:00:33.242Z,66.90
2019-02-03T14:03:01.301Z,66.00
2019-02-03T14:05:29.442Z,65.20
2019-02-03T14:07:57.619Z,66.00
2019-02-03T14:10:29.536Z,66.03
2019-02-03T14:12:59.391Z,67.90
2019-02-03T14:15:27.494Z,66.43
2019-02-03T14:17:55.557Z,66.30
2019-02-03T14:20:24.856Z,66.03
2019-02-03T14:22:53.125Z,66.40
2019-02-03T14:25:21.251Z,66.83
2019-02-03T14:27:51.013Z,66.00
2019-02-03T14:30:40.889Z,65.70
2019-02-03T14:33:07.862Z,66.37
2019-02-03T14:35:35.948Z,67.13
2019-02-03T14:38:06.141Z,67.03
2019-02-03T14:40:34.223Z,65.97
2019-02-03T14:43:02.531Z,65.37
2019-02-03T14:45:31.864Z,66.63
2019-02-03T14:47:59.942Z,68.30
2019-02-03T14:50:28.000Z,65.97
2019-02-03T14:52:56.316Z,70.90
2019-02-03T14:55:25.764Z,65.90
2019-02-03T14:57:53.763Z,66.37
2019-02-03T15:00:23.176Z,66.20
2019-02-03T15:02:51.240Z,66.50
2019-02-03T15:05:20.189Z,66.90
2019-02-03T15:07:49.053Z,66.77
2019-02-03T15:10:17.176Z,67.07
2019-02-03T15:12:45.222Z,66.10
2019-02-03T15:15:14.273Z,66.67
2019-02-03T15:17:42.324Z,67.57
2019-02-03T15:20:11.426Z,68.70
2019-02-03T15:22:39.583Z,67.60
2019-02-03T15:25:07.612Z,65.77
2019-02-03T15:27:35.795Z,66.47
2019-02-03T15:30:24.148Z,66.10
2019-02-03T15:32:52.356Z,66.37
2019-02-03T15:35:20.340Z,65.93
2019-02-03T15:37:48.458Z,66.50
2019-02-03T15:40:17.182Z,66.07
2019-02-03T15:42:45.356Z,66.93
2019-02-03T15:45:14.170Z,65.77
2019-02-03T15:47:42.264Z,65.70
2019-02-03T15:50:11.748Z,65.83
2019-02-03T15:52:39.818Z,65.60
2019-02-03T15:55:09.112Z,66.37
2019-02-03T15:57:37.437Z,66.80
2019-02-03T16:05:56.661Z,66.00
2019-02-03T16:08:24.652Z,65.47
2019-02-03T16:10:52.726Z,65.57
2019-02-03T16:13:20.726Z,65.97
2019-02-03T16:15:48.798Z,65.80
2019-02-03T16:18:16.737Z,65.50
2019-02-03T16:20:44.722Z,66.00
2019-02-03T16:23:12.767Z,65.90
2019-02-03T16:25:40.731Z,65.17
2019-02-03T16:28:08.729Z,66.00
2019-02-03T16:30:38.545Z,65.77
2019-02-03T16:33:09.175Z,65.70
2019-02-03T16:35:36.455Z,66.67
2019-02-03T16:38:04.614Z,65.93
2019-02-03T16:40:32.673Z,65.80
2019-02-03T16:43:00.868Z,65.20
2019-02-03T16:45:28.917Z,65.37
2019-02-03T16:47:57.013Z,66.20
2019-02-03T16:50:27.644Z,65.70
2019-02-03T16:55:58.516Z,66.10
2019-02-03T16:58:28.196Z,65.70
2019-02-03T17:00:56.221Z,65.73
2019-02-03T17:03:24.208Z,65.33
2019-02-03T17:05:52.421Z,66.60
2019-02-03T17:08:20.469Z,65.23
2019-02-03T17:10:48.434Z,65.20
2019-02-03T17:13:16.398Z,66.87
2019-02-03T17:15:45.906Z,65.80
2019-02-03T17:18:13.983Z,66.10
2019-02-03T17:20:41.954Z,65.60
2019-02-03T17:23:10.019Z,66.57
2019-02-03T17:25:39.584Z,65.30
2019-02-03T17:28:07.586Z,66.67
2019-02-03T17:30:35.679Z,64.93
2019-02-03T17:33:03.804Z,65.37
2019-02-03T17:35:31.911Z,70.43
2019-02-03T17:37:59.987Z,74.57
2019-02-03T17:40:28.067Z,68.03
2019-02-03T17:42:56.125Z,66.70
2019-02-03T17:45:26.050Z,67.27
2019-02-03T17:47:54.067Z,67.07
2019-02-03T17:50:40.988Z,65.43
2019-02-03T17:53:09.029Z,65.50
2019-02-03T17:55:37.047Z,66.43
2019-02-03T17:58:05.219Z,66.80
2019-02-03T18:00:52.286Z,65.97
2019-02-03T18:06:02.397Z,66.40
2019-02-03T18:08:30.389Z,65.70
2019-02-03T18:10:58.445Z,65.10
2019-02-03T18:13:26.404Z,65.07
2019-02-03T18:18:36.478Z,65.97
2019-02-03T18:24:06.998Z,66.63
2019-02-03T18:26:35.121Z,67.13
2019-02-03T18:29:03.225Z,66.37
2019-02-03T18:31:31.253Z,65.97
2019-02-03T18:33:59.280Z,65.90
2019-02-03T18:36:27.382Z,66.63
2019-02-03T18:38:55.398Z,65.10
2019-02-03T18:41:25.065Z,64.80
2019-02-03T18:43:53.060Z,64.90
2019-02-03T18:46:21.156Z,67.20
2019-02-03T18:48:49.213Z,65.20
2019-02-03T18:51:17.278Z,65.20
2019-02-03T18:53:45.383Z,66.07
2019-02-03T18:56:13.401Z,65.07
2019-02-03T18:58:41.428Z,66.67
2019-02-03T19:01:23.185Z,65.57
2019-02-03T19:03:51.253Z,65.50
2019-02-03T19:06:19.327Z,65.43
2019-02-03T19:08:47.738Z,65.47
2019-02-03T19:13:57.858Z,65.00
2019-02-03T19:16:25.882Z,65.17
2019-02-03T19:18:53.912Z,65.97
2019-02-03T19:21:23.885Z,66.30
2019-02-03T19:23:51.778Z,65.03
2019-02-03T19:26:19.789Z,65.47
2019-02-03T19:28:47.855Z,65.57
2019-02-03T19:31:15.809Z,65.70
2019-02-03T19:33:43.799Z,65.80
2019-02-03T19:36:11.859Z,65.97
2019-02-03T19:38:39.887Z,65.43
2019-02-03T19:43:49.958Z,66.03
2019-02-03T19:46:17.984Z,66.27
2019-02-03T19:48:46.011Z,66.23
2019-02-03T19:51:13.989Z,69.67
2019-02-03T19:53:42.014Z,65.37
2019-02-03T19:56:10.045Z,65.57
2019-02-03T19:58:38.131Z,66.77
2019-02-03T20:01:06.172Z,66.67
2019-02-03T20:06:16.546Z,65.90
2019-02-03T20:08:44.656Z,65.00
2019-02-03T20:11:12.701Z,65.37
2019-02-03T20:13:40.754Z,65.80
2019-02-03T20:16:08.861Z,65.77
2019-02-03T20:18:36.996Z,65.57
2019-02-03T20:21:04.985Z,66.00
2019-02-03T20:23:33.063Z,65.57
2019-02-03T20:26:01.145Z,65.37
2019-02-03T20:28:29.188Z,68.70
2019-02-03T20:30:57.156Z,65.20
2019-02-03T20:33:26.880Z,66.50
2019-02-03T20:35:54.881Z,66.17
2019-02-03T20:38:22.970Z,66.50
2019-02-03T20:40:50.996Z,65.43
2019-02-03T20:43:19.179Z,64.93
2019-02-03T20:45:49.803Z,65.57
2019-02-03T20:48:16.923Z,65.67
2019-02-03T20:50:44.922Z,67.67
2019-02-03T20:53:13.016Z,66.23
2019-02-03T20:55:40.937Z,66.07
2019-02-03T20:58:08.914Z,67.90
2019-02-03T21:00:57.354Z,65.50
2019-02-03T21:03:25.354Z,65.47
2019-02-03T21:05:53.408Z,66.20
2019-02-03T21:08:21.457Z,66.90
2019-02-03T21:10:49.512Z,66.17
2019-02-03T21:13:17.525Z,66.70
2019-02-03T21:15:45.482Z,66.20
2019-02-03T21:18:13.460Z,66.00
2019-02-03T21:23:44.130Z,67.70
2019-02-03T21:26:16.370Z,65.30
2019-02-03T21:28:42.732Z,66.13
2019-02-03T21:31:11.493Z,66.20
2019-02-03T21:39:01.946Z,70.23
2019-02-03T21:41:29.997Z,68.40
2019-02-03T21:43:58.012Z,65.70
2019-02-03T21:46:26.043Z,65.20
2019-02-03T21:48:53.961Z,66.17
2019-02-03T21:51:21.849Z,66.50
2019-02-03T21:53:49.838Z,68.03
2019-02-03T21:56:17.802Z,66.83
2019-02-03T21:58:45.760Z,65.37
2019-02-03T22:01:13.757Z,67.80
2019-02-03T22:03:41.811Z,66.87
2019-02-03T22:06:11.472Z,67.53
2019-02-03T22:08:39.380Z,68.23
2019-02-03T22:11:07.451Z,67.10
2019-02-03T22:13:35.423Z,65.57
2019-02-03T22:16:03.387Z,66.10
2019-02-03T22:21:13.480Z,65.77
2019-02-03T22:23:41.540Z,67.00
2019-02-03T22:26:09.522Z,66.57
2019-02-03T22:28:37.580Z,68.03
2019-02-03T22:31:05.554Z,66.77
2019-02-03T22:33:35.192Z,65.77
2019-02-03T22:36:03.279Z,69.40
2019-02-03T22:38:31.311Z,66.73
2019-02-03T22:40:59.402Z,65.90
2019-02-03T22:43:27.465Z,65.50
2019-02-03T22:46:06.501Z,67.10
2019-02-03T22:48:25.244Z,66.47
2019-02-03T22:50:53.346Z,68.43
2019-02-03T22:53:21.388Z,67.80
2019-02-03T22:55:49.452Z,66.87
2019-02-03T22:58:17.534Z,66.30
2019-02-03T23:04:23.102Z,68.30
2019-02-03T23:06:51.121Z,66.27
2019-02-03T23:09:38.442Z,66.60
2019-02-03T23:12:07.402Z,68.23
2019-02-03T23:14:35.453Z,66.50
2019-02-03T23:17:03.531Z,66.37
2019-02-03T23:19:31.508Z,65.80
2019-02-03T23:21:59.431Z,66.60
2019-02-03T23:24:27.437Z,66.40
2019-02-03T23:26:55.487Z,66.07
2019-02-03T23:29:23.510Z,66.30
2019-02-03T23:31:51.631Z,66.43
2019-02-03T23:37:01.844Z,70.80
2019-02-03T23:39:29.910Z,67.07
2019-02-03T23:41:57.877Z,68.23
2019-02-03T23:44:26.019Z,68.80
2019-02-03T23:46:54.015Z,68.20
2019-02-03T23:49:22.058Z,66.77
2019-02-03T23:51:50.056Z,67.87
2019-02-03T23:54:18.101Z,67.63
2019-02-03T23:56:46.270Z,67.10
2019-02-03T23:59:14.243Z,66.63
